Time;durP1;ratioP1;P1;durP2;ratioP2;P2;SDS_P1;SDS_P2;PMS_P1;PMS_P2;Temp;Humidity;BMP_temperature;BMP_pressure;BME280_temperature;BME280_humidity;BME280_pressure;Samples;Min_cycle;Max_cycle;Signal;HPM_P1;HPM_P2
2022/10/30 00:00:44;;;;;;;0.83;0.83;;;;;;;11.88;82.40;99864.03;5111547;28;20213;-65
2022/10/30 00:03:12;;;;;;;1.33;1.07;;;;;;;11.88;82.76;99865.78;5111422;28;20197;-59
2022/10/30 00:05:42;;;;;;;1.30;0.97;;;;;;;11.84;82.48;99874.53;5111485;28;20317;-65
2022/10/30 00:08:10;;;;;;;1.33;1.13;;;;;;;11.85;82.57;99869.38;5111287;28;20288;-58
2022/10/30 00:10:37;;;;;;;0.40;0.40;;;;;;;11.82;82.25;99866.97;5111556;28;20693;-65
2022/10/30 00:13:04;;;;;;;0.87;0.83;;;;;;;11.81;82.41;99870.47;5111060;28;20206;-58
2022/10/30 00:15:32;;;;;;;1.13;1.00;;;;;;;11.77;82.40;99866.44;5111637;28;20709;-65
2022/10/30 00:17:59;;;;;;;0.93;0.87;;;;;;;11.74;82.41;99861.53;5111383;28;20216;-58
2022/10/30 00:20:26;;;;;;;1.10;0.70;;;;;;;11.72;82.43;99871.03;5111137;28;20213;-64
2022/10/30 00:22:52;;;;;;;1.10;1.00;;;;;;;11.69;82.44;99866.13;5111256;28;20189;-58
2022/10/30 00:25:20;;;;;;;0.80;0.80;;;;;;;11.69;82.46;99855.88;5110791;28;20274;-59
2022/10/30 00:27:46;;;;;;;1.40;1.10;;;;;;;11.66;82.81;99861.19;5110906;28;20197;-65
2022/10/30 00:30:14;;;;;;;3.97;1.80;;;;;;;11.63;82.85;99856.25;5111330;28;20221;-57
2022/10/30 00:32:42;;;;;;;0.50;0.47;;;;;;;11.54;82.83;99853.38;5111054;28;20205;-64
2022/10/30 00:35:09;;;;;;;1.27;0.90;;;;;;;11.54;83.26;99853.38;5110898;28;20697;-65
2022/10/30 00:37:36;;;;;;;1.80;0.80;;;;;;;11.51;82.85;99843.31;5110626;28;20208;-58
2022/10/30 00:40:04;;;;;;;1.27;1.17;;;;;;;11.43;83.25;99844.72;5110699;27;20221;-65
2022/10/30 00:42:31;;;;;;;0.73;0.73;;;;;;;11.42;83.69;99843.91;5110874;28;20196;-58
2022/10/30 00:44:58;;;;;;;1.13;0.90;;;;;;;11.44;83.20;99836.97;5110724;28;20239;-58
2022/10/30 00:47:28;;;;;;;0.80;0.80;;;;;;;11.43;83.34;99835.34;5110858;28;20201;-58
2022/10/30 00:50:01;;;;;;;0.80;0.70;;;;;;;11.40;83.59;99840.63;5110682;28;20213;-58
2022/10/30 00:52:33;;;;;;;1.00;0.90;;;;;;;11.34;83.73;99835.88;5110759;28;20193;-57
2022/10/30 00:55:04;;;;;;;0.83;0.70;;;;;;;11.27;83.99;99834.66;5109458;28;20233;-64
2022/10/30 00:57:32;;;;;;;1.73;0.90;;;;;;;11.24;83.84;99829.72;5110547;28;20211;-65
2022/10/30 00:59:58;;;;;;;0.70;0.70;;;;;;;11.22;83.90;99826.44;5110802;28;20221;-57
2022/10/30 01:02:26;;;;;;;0.70;0.70;;;;;;;11.19;84.12;99824.06;5110480;28;20605;-58
2022/10/30 01:04:54;;;;;;;0.70;0.70;;;;;;;11.17;84.49;99825.91;5110329;28;20233;-58
2022/10/30 01:07:23;;;;;;;0.97;0.87;;;;;;;11.12;84.51;99825.38;5110279;28;20205;-64
2022/10/30 01:09:49;;;;;;;0.87;0.87;;;;;;;11.06;84.95;99822.28;5110297;28;20226;-64
2022/10/30 01:12:16;;;;;;;1.33;0.90;;;;;;;11.02;84.82;99815.69;5110384;28;20811;-58
2022/10/30 01:14:51;;;;;;;0.77;0.60;;;;;;;10.98;85.05;99813.44;5110080;28;20213;-64
2022/10/30 01:17:37;;;;;;;1.00;0.90;;;;;;;10.94;85.50;99810.25;5110571;28;20234;-58
2022/10/30 01:20:19;;;;;;;0.73;0.73;;;;;;;10.91;85.62;99813.00;5110105;28;20768;-60
2022/10/30 01:22:57;;;;;;;0.70;0.70;;;;;;;10.89;85.72;99809.72;5110218;28;20231;-58
2022/10/30 01:25:36;;;;;;;0.87;0.87;;;;;;;10.81;85.74;99810.19;5110367;28;20217;-65
2022/10/30 01:28:20;;;;;;;1.00;0.90;;;;;;;10.77;86.08;99810.47;5110054;28;20293;-65
2022/10/30 01:31:00;;;;;;;0.53;0.53;;;;;;;10.78;86.32;99801.88;5110112;28;20243;-64
2022/10/30 01:33:39;;;;;;;2.17;1.37;;;;;;;10.75;86.13;99799.50;5110152;28;20249;-65
2022/10/30 01:36:15;;;;;;;1.13;1.00;;;;;;;10.70;86.25;99796.41;5110441;28;20228;-58
2022/10/30 01:38:50;;;;;;;1.93;0.87;;;;;;;10.68;86.29;99793.97;5110079;28;20197;-58
2022/10/30 01:41:17;;;;;;;0.77;0.77;;;;;;;10.67;86.16;99792.28;5109992;28;20329;-64
2022/10/30 01:43:47;;;;;;;0.43;0.43;;;;;;;10.60;86.42;99791.88;5110139;28;20193;-58
2022/10/30 01:46:31;;;;;;;1.60;0.90;;;;;;;10.55;86.79;99786.19;5110265;28;20277;-65
2022/10/30 01:49:14;;;;;;;1.87;1.00;;;;;;;10.54;86.88;99789.69;5110276;28;20817;-65
2022/10/30 01:51:51;;;;;;;0.60;0.33;;;;;;;10.49;86.74;99786.56;5110122;28;20197;-65
2022/10/30 01:54:28;;;;;;;0.87;0.77;;;;;;;10.47;87.10;99783.31;5110031;28;20257;-62
2022/10/30 01:57:03;;;;;;;0.43;0.43;;;;;;;10.51;87.24;99782.19;5110154;28;20711;-64
2022/10/30 01:59:36;;;;;;;0.73;0.73;;;;;;;10.47;86.96;99774.78;5109713;28;20216;-58
2022/10/30 02:02:03;;;;;;;1.07;0.87;;;;;;;10.48;87.09;99772.16;5109995;28;20626;-65
2022/10/30 02:04:30;;;;;;;0.73;0.73;;;;;;;10.49;86.76;99770.41;5109818;28;20657;-65
2022/10/30 02:06:57;;;;;;;0.70;0.50;;;;;;;10.49;87.02;99763.56;5112742;28;20680;-64
2022/10/30 02:09:26;;;;;;;1.33;1.23;;;;;;;10.47;87.31;99769.69;5113713;28;20359;-64
2022/10/30 02:11:53;;;;;;;0.70;0.70;;;;;;;10.44;87.39;99770.69;5113417;28;20201;-65
2022/10/30 02:14:24;;;;;;;1.47;0.93;;;;;;;10.45;87.67;99769.78;5113244;28;20232;-58
2022/10/30 02:16:54;;;;;;;2.20;0.87;;;;;;;10.43;87.24;99769.06;5113455;28;20225;-64
2022/10/30 02:19:21;;;;;;;0.93;0.77;;;;;;;10.42;87.74;99762.31;5112992;28;20221;-64
2022/10/30 02:21:50;;;;;;;0.83;0.83;;;;;;;10.46;87.61;99761.19;5113437;28;20383;-58
2022/10/30 02:24:17;;;;;;;0.77;0.63;;;;;;;10.44;87.33;99760.47;5112904;28;20232;-64
2022/10/30 02:26:43;;;;;;;0.83;0.60;;;;;;;10.44;87.51;99757.91;5113418;28;20201;-58
2022/10/30 02:29:10;;;;;;;3.90;1.33;;;;;;;10.44;87.56;99763.00;5113151;28;20221;-65
2022/10/30 02:31:37;;;;;;;0.60;0.60;;;;;;;10.42;87.39;99754.66;5113054;28;20200;-65
2022/10/30 02:34:05;;;;;;;1.07;1.00;;;;;;;10.44;87.50;99763.00;5112996;28;20229;-58
2022/10/30 02:36:31;;;;;;;0.43;0.43;;;;;;;10.47;87.54;99756.91;5113185;28;20224;-58
2022/10/30 02:39:00;;;;;;;0.83;0.63;;;;;;;10.51;87.21;99761.75;5112771;28;20209;-57
2022/10/30 02:41:26;;;;;;;0.60;0.60;;;;;;;10.50;86.98;99757.56;5112977;28;20197;-58
2022/10/30 02:43:53;;;;;;;0.50;0.50;;;;;;;10.53;87.08;99757.38;5112961;28;20671;-65
2022/10/30 02:46:20;;;;;;;0.50;0.50;;;;;;;10.52;87.09;99758.25;5112951;28;20216;-58
2022/10/30 02:48:47;;;;;;;0.40;0.40;;;;;;;10.45;87.11;99764.69;5112784;28;20201;-64
2022/10/30 02:51:14;;;;;;;2.93;1.10;;;;;;;10.42;87.39;99759.75;5112764;28;20197;-58
2022/10/30 02:53:41;;;;;;;0.77;0.77;;;;;;;10.38;87.67;99753.16;5112474;28;20258;-58
2022/10/30 02:56:11;;;;;;;0.70;0.70;;;;;;;10.38;87.43;99743.78;5112685;28;20469;-65
2022/10/30 02:58:38;;;;;;;0.53;0.53;;;;;;;10.35;87.68;99740.56;5112651;28;20193;-58
2022/10/30 03:01:06;;;;;;;0.40;0.40;;;;;;;10.31;87.95;99739.13;5112683;28;20227;-65
2022/10/30 03:03:33;;;;;;;0.97;0.87;;;;;;;10.33;88.03;99744.97;5112467;28;20745;-65
2022/10/30 03:06:01;;;;;;;0.40;0.40;;;;;;;10.34;88.07;99741.50;5112613;28;20201;-65
2022/10/30 03:08:28;;;;;;;0.60;0.60;;;;;;;10.29;88.46;99743.50;5112426;28;20326;-58
2022/10/30 03:11:00;;;;;;;0.70;0.70;;;;;;;10.29;88.51;99740.94;5112277;28;20217;-64
2022/10/30 03:13:30;;;;;;;0.43;0.43;;;;;;;10.30;88.42;99740.88;5112375;28;20653;-65
2022/10/30 03:16:01;;;;;;;0.50;0.50;;;;;;;10.29;88.60;99743.50;5112115;28;20229;-57
2022/10/30 03:18:28;;;;;;;0.60;0.60;;;;;;;10.30;88.65;99740.06;5111609;28;20236;-65
2022/10/30 03:21:00;;;;;;;0.97;0.87;;;;;;;10.28;88.20;99747.00;5111946;28;20740;-64
2022/10/30 03:23:27;;;;;;;2.87;0.60;;;;;;;10.34;88.28;99752.53;5112112;28;20197;-65
2022/10/30 03:25:55;;;;;;;0.80;0.80;;;;;;;10.37;88.45;99748.97;5111789;28;20221;-65
2022/10/30 03:28:23;;;;;;;0.33;0.33;;;;;;;10.36;88.23;99744.78;5112081;28;20262;-58
2022/10/30 03:30:57;;;;;;;0.67;0.57;;;;;;;10.32;88.90;99745.88;5111780;27;20907;-65
2022/10/30 03:33:24;;;;;;;0.67;0.67;;;;;;;10.36;88.54;99747.34;5112030;28;20615;-58
2022/10/30 03:35:51;;;;;;;0.57;0.57;;;;;;;10.37;88.44;99746.44;5111548;28;20298;-65
2022/10/30 03:38:18;;;;;;;0.57;0.57;;;;;;;10.34;88.44;99741.50;5111601;28;20697;-58
2022/10/30 03:40:45;;;;;;;0.70;0.63;;;;;;;10.36;88.62;99744.78;5111715;28;20225;-58
2022/10/30 03:43:11;;;;;;;0.87;0.60;;;;;;;10.40;88.39;99746.25;5111538;28;20208;-65
2022/10/30 03:45:38;;;;;;;1.30;0.60;;;;;;;10.39;88.50;99744.59;5111841;28;20233;-58
2022/10/30 03:48:06;;;;;;;0.30;0.30;;;;;;;10.44;88.17;99740.00;5111412;28;20689;-58
2022/10/30 03:50:33;;;;;;;0.40;0.40;;;;;;;10.45;88.09;99746.78;5111349;28;20228;-58
2022/10/30 03:53:02;;;;;;;0.30;0.30;;;;;;;10.44;88.31;99740.00;5111553;27;20228;-58
2022/10/30 03:55:29;;;;;;;0.63;0.60;;;;;;;10.49;88.29;99739.75;5111267;28;20217;-58
2022/10/30 03:57:55;;;;;;;0.73;0.73;;;;;;;10.43;88.25;99746.03;5111301;28;20208;-58
2022/10/30 04:00:22;;;;;;;0.67;0.50;;;;;;;10.41;88.48;99747.88;5111303;28;20700;-65
2022/10/30 04:02:51;;;;;;;1.17;0.67;;;;;;;10.36;88.11;99734.56;5110970;28;20254;-65
2022/10/30 04:05:21;;;;;;;0.30;0.30;;;;;;;10.34;88.41;99736.38;5110838;28;20229;-65
2022/10/30 04:07:49;;;;;;;0.83;0.83;;;;;;;10.30;88.70;99729.84;5111143;28;20197;-58
2022/10/30 04:10:16;;;;;;;0.40;0.40;;;;;;;10.31;88.93;99726.34;5111001;28;20723;-57
2022/10/30 04:12:42;;;;;;;0.80;0.80;;;;;;;10.33;88.64;99724.53;5111162;28;20737;-58
2022/10/30 04:15:09;;;;;;;0.73;0.40;;;;;;;10.34;88.84;99715.94;5110865;28;20868;-65
2022/10/30 04:17:36;;;;;;;0.50;0.50;;;;;;;10.31;89.03;99711.00;5110744;28;20653;-58
2022/10/30 04:20:03;;;;;;;0.20;0.20;;;;;;;10.22;89.74;99714.94;5110729;28;20675;-58
2022/10/30 04:22:32;;;;;;;0.67;0.67;;;;;;;10.30;89.59;99706.84;5110913;28;20197;-58
2022/10/30 04:24:58;;;;;;;0.60;0.60;;;;;;;10.25;89.76;99711.38;5110714;28;20224;-64
2022/10/30 04:27:25;;;;;;;1.00;0.90;;;;;;;10.25;89.67;99707.06;5110891;28;20665;-58
2022/10/30 04:29:52;;;;;;;0.40;0.40;;;;;;;10.26;89.54;99718.09;5110385;28;20723;-65
2022/10/30 04:32:19;;;;;;;0.40;0.40;;;;;;;10.30;89.52;99711.94;5110682;28;20204;-65
2022/10/30 04:34:46;;;;;;;1.70;0.93;;;;;;;10.30;89.62;99719.63;5110825;28;20654;-57
2022/10/30 04:37:13;;;;;;;0.57;0.50;;;;;;;10.31;89.40;99718.69;5110668;28;20229;-58
2022/10/30 04:39:43;;;;;;;0.50;0.50;;;;;;;10.28;89.43;99716.31;5110621;28;20213;-65
2022/10/30 04:42:10;;;;;;;0.50;0.50;;;;;;;10.25;89.67;99716.47;5110762;28;20201;-58
2022/10/30 04:44:37;;;;;;;0.70;0.70;;;;;;;10.24;89.58;99719.91;5110079;28;20213;-65
2022/10/30 04:47:04;;;;;;;0.77;0.70;;;;;;;10.23;90.01;99714.00;5110503;28;20668;-58
2022/10/30 04:49:30;;;;;;;0.53;0.53;;;;;;;10.20;89.77;99715.00;5110432;28;20213;-65
2022/10/30 04:51:57;;;;;;;0.70;0.70;;;;;;;10.26;89.77;99711.25;5110307;28;20212;-61
2022/10/30 04:54:24;;;;;;;0.60;0.60;;;;;;;10.26;89.65;99702.78;5110229;28;20209;-58
2022/10/30 04:56:52;;;;;;;1.27;1.10;;;;;;;10.24;89.66;99708.00;5110072;28;20653;-58
2022/10/30 04:59:19;;;;;;;1.33;1.03;;;;;;;10.22;89.65;99706.44;5109997;28;20225;-58
2022/10/30 05:01:46;;;;;;;1.00;1.00;;;;;;;10.18;89.76;99705.78;5110166;28;20206;-57
2022/10/30 05:04:12;;;;;;;0.40;0.40;;;;;;;10.17;90.06;99714.38;5110089;28;20708;-58
2022/10/30 05:06:40;;;;;;;0.83;0.83;;;;;;;10.22;90.16;99716.66;5110240;28;20201;-65
2022/10/30 05:09:07;;;;;;;0.47;0.47;;;;;;;10.19;90.02;99717.66;5109815;28;20220;-58
2022/10/30 05:11:34;;;;;;;0.50;0.50;;;;;;;10.21;90.51;99710.72;5110142;28;20316;-65
2022/10/30 05:14:02;;;;;;;0.50;0.50;;;;;;;10.24;90.15;99717.38;5110023;28;20274;-58
2022/10/30 05:16:29;;;;;;;1.00;0.50;;;;;;;10.31;89.93;99711.00;5110346;28;20228;-65
2022/10/30 05:18:56;;;;;;;0.40;0.40;;;;;;;10.34;90.33;99715.94;5109825;28;20221;-58
2022/10/30 05:21:22;;;;;;;0.30;0.30;;;;;;;10.30;90.55;99714.50;5110255;28;20209;-65
2022/10/30 05:23:49;;;;;;;0.60;0.60;;;;;;;10.36;90.31;99714.94;5109867;28;20189;-65
2022/10/30 05:26:16;;;;;;;0.60;0.60;;;;;;;10.36;90.26;99725.16;5109917;28;20205;-65
2022/10/30 05:28:43;;;;;;;0.60;0.60;;;;;;;10.37;90.05;99724.25;5109660;28;20321;-58
2022/10/30 05:31:11;;;;;;;0.47;0.47;;;;;;;10.39;90.07;99729.28;5109992;28;20197;-65
2022/10/30 05:33:38;;;;;;;0.50;0.50;;;;;;;10.47;89.64;99726.22;5109691;28;20201;-65
2022/10/30 05:36:05;;;;;;;0.87;0.77;;;;;;;10.54;90.03;99733.44;5109673;28;20208;-65
2022/10/30 05:38:32;;;;;;;0.50;0.27;;;;;;;10.61;89.67;99729.56;5109814;28;20204;-65
2022/10/30 05:40:59;;;;;;;0.50;0.50;;;;;;;10.71;89.10;99734.13;5111688;28;20201;-58
2022/10/30 05:43:25;;;;;;;0.30;0.30;;;;;;;10.74;88.91;99744.16;5113958;28;20652;-58
2022/10/30 05:45:52;;;;;;;1.93;0.27;;;;;;;10.81;89.23;99750.53;5113931;28;20221;-65
2022/10/30 05:48:20;;;;;;;0.60;0.60;;;;;;;10.85;89.01;99752.00;5113853;28;20219;-65
2022/10/30 05:50:47;;;;;;;0.83;0.83;;;;;;;10.88;89.19;99756.91;5113982;28;20236;-58
2022/10/30 05:53:14;;;;;;;0.60;0.60;;;;;;;10.96;88.74;99748.75;5114022;28;20205;-58
2022/10/30 05:55:41;;;;;;;1.93;0.70;;;;;;;11.03;88.20;99750.81;5113968;28;20723;-58
2022/10/30 05:58:07;;;;;;;0.43;0.43;;;;;;;11.18;88.13;99748.22;5113831;28;20225;-59
2022/10/30 06:00:38;;;;;;;0.50;0.50;;;;;;;11.30;87.39;99752.53;5113591;28;20225;-65
2022/10/30 06:03:07;;;;;;;0.57;0.57;;;;;;;11.47;86.96;99754.00;5113772;28;20189;-58
2022/10/30 06:05:36;;;;;;;0.60;0.60;;;;;;;11.65;86.14;99752.78;5113662;28;20242;-58
2022/10/30 06:08:04;;;;;;;1.03;0.93;;;;;;;11.95;85.18;99749.94;5113408;28;20684;-58
2022/10/30 06:10:31;;;;;;;0.37;0.33;;;;;;;12.18;83.95;99755.28;5113419;28;20221;-65
2022/10/30 06:13:00;;;;;;;0.83;0.73;;;;;;;12.43;83.12;99750.09;5113580;28;20661;-58
2022/10/30 06:15:28;;;;;;;0.70;0.70;;;;;;;12.68;81.55;99743.25;5113230;28;20225;-65
2022/10/30 06:17:55;;;;;;;0.60;0.60;;;;;;;12.89;79.88;99740.94;5113284;28;20229;-65
2022/10/30 06:20:25;;;;;;;0.77;0.73;;;;;;;13.22;79.23;99742.00;5113243;28;20674;-65
2022/10/30 06:22:58;;;;;;;0.70;0.70;;;;;;;13.48;77.03;99747.81;5113066;28;20200;-58
2022/10/30 06:25:25;;;;;;;1.23;0.93;;;;;;;13.76;76.41;99742.28;5113219;28;20221;-58
2022/10/30 06:27:52;;;;;;;2.23;1.40;;;;;;;14.11;75.25;99741.34;5113171;28;20575;-58
2022/10/30 06:30:20;;;;;;;1.83;1.07;;;;;;;14.42;73.27;99741.56;5112857;28;20684;-65
2022/10/30 06:32:47;;;;;;;0.70;0.70;;;;;;;14.71;71.72;99744.44;5113294;28;20720;-65
2022/10/30 06:35:14;;;;;;;1.30;1.20;;;;;;;15.01;71.08;99748.94;5112755;28;20225;-58
2022/10/30 06:37:46;;;;;;;1.47;1.37;;;;;;;15.23;68.60;99739.47;5112974;28;20236;-65
2022/10/30 06:40:15;;;;;;;0.90;0.80;;;;;;;15.60;69.27;99739.84;5113279;28;20309;-65
2022/10/30 06:42:43;;;;;;;0.90;0.87;;;;;;;15.77;67.30;99738.50;5112921;28;20638;-58
2022/10/30 06:45:12;;;;;;;0.70;0.70;;;;;;;16.21;66.56;99741.66;5112938;28;20308;-58
2022/10/30 06:47:39;;;;;;;1.10;1.00;;;;;;;16.56;64.11;99740.38;5112787;28;20198;-65
2022/10/30 06:50:08;;;;;;;1.43;1.10;;;;;;;16.79;63.22;99741.00;5112695;28;20217;-65
2022/10/30 06:52:35;;;;;;;0.80;0.80;;;;;;;16.67;62.65;99738.50;5111527;28;20201;-58
2022/10/30 06:55:02;;;;;;;1.13;1.03;;;;;;;16.48;62.61;99739.28;5112926;28;20209;-58
2022/10/30 06:57:30;;;;;;;0.90;0.80;;;;;;;16.82;62.62;99746.72;5112585;28;20229;-58
2022/10/30 06:59:56;;;;;;;1.77;1.23;;;;;;;17.16;61.71;99746.28;5112700;28;20215;-58
2022/10/30 07:02:23;;;;;;;1.20;0.90;;;;;;;17.46;60.88;99749.69;5112683;28;20213;-65
2022/10/30 07:04:50;;;;;;;1.40;1.20;;;;;;;17.72;58.95;99747.31;5112249;28;20236;-65
2022/10/30 07:07:17;;;;;;;1.90;1.20;;;;;;;17.68;57.51;99743.34;5112960;28;20265;-65
2022/10/30 07:09:45;;;;;;;1.27;0.90;;;;;;;17.97;58.61;99744.09;5112664;28;20223;-65
2022/10/30 07:12:12;;;;;;;0.83;0.83;;;;;;;18.11;57.24;99750.59;5112547;28;20271;-65
2022/10/30 07:14:40;;;;;;;1.07;0.83;;;;;;;18.37;55.44;99750.75;5112428;28;20223;-62
2022/10/30 07:17:07;;;;;;;1.07;1.00;;;;;;;18.82;56.14;99746.53;5112442;28;20231;-58
2022/10/30 07:19:34;;;;;;;1.87;1.40;;;;;;;19.33;55.03;99745.03;5112440;28;20235;-58
2022/10/30 07:22:01;;;;;;;1.30;1.20;;;;;;;19.72;52.84;99742.06;5112368;28;20204;-58
2022/10/30 07:24:28;;;;;;;1.27;1.00;;;;;;;19.99;52.27;99744.47;5112235;28;20229;-59
2022/10/30 07:26:55;;;;;;;1.17;1.00;;;;;;;20.17;52.04;99741.00;5112148;28;20213;-65
2022/10/30 07:29:22;;;;;;;1.30;1.03;;;;;;;20.65;51.50;99742.91;5112218;28;20232;-65
2022/10/30 07:31:50;;;;;;;0.90;0.90;;;;;;;20.81;50.42;99744.75;5112164;28;20208;-58
2022/10/30 07:34:17;;;;;;;1.20;1.10;;;;;;;21.23;50.42;99746.38;5111891;28;20736;-58
2022/10/30 07:36:43;;;;;;;1.90;1.43;;;;;;;21.48;48.46;99742.81;5112035;28;20204;-59
2022/10/30 07:39:10;;;;;;;1.57;1.17;;;;;;;20.77;50.13;99743.47;5111761;28;20219;-58
2022/10/30 07:41:37;;;;;;;1.93;1.40;;;;;;;20.72;50.76;99736.13;5111978;28;20201;-58
2022/10/30 07:44:04;;;;;;;1.57;1.23;;;;;;;21.38;50.49;99741.34;5112026;28;20291;-58
2022/10/30 07:46:31;;;;;;;2.20;1.50;;;;;;;21.74;49.23;99736.59;5111789;28;20204;-65
2022/10/30 07:48:59;;;;;;;1.60;1.50;;;;;;;21.89;48.21;99740.09;5111749;28;20233;-58
2022/10/30 07:51:25;;;;;;;1.63;1.20;;;;;;;21.82;48.24;99736.56;5111933;28;20638;-65
2022/10/30 07:53:52;;;;;;;1.30;1.20;;;;;;;21.62;48.50;99732.72;5111890;28;20714;-66
2022/10/30 07:56:19;;;;;;;1.60;1.30;;;;;;;21.79;48.34;99729.09;5111574;28;20204;-59
2022/10/30 07:58:46;;;;;;;1.83;1.43;;;;;;;21.88;47.22;99715.06;5111279;28;20226;-58
2022/10/30 08:01:12;;;;;;;3.20;1.80;;;;;;;21.63;48.28;99713.50;5111840;28;20203;-59
2022/10/30 08:03:39;;;;;;;2.40;1.70;;;;;;;22.03;48.30;99709.16;5111001;28;20206;-65
2022/10/30 08:06:07;;;;;;;2.37;1.80;;;;;;;22.33;47.98;99707.56;5111492;28;20212;-65
2022/10/30 08:08:34;;;;;;;2.00;1.60;;;;;;;22.60;47.25;99706.22;5111253;28;20215;-66
2022/10/30 08:11:01;;;;;;;2.05;1.58;;;;;;;23.02;46.58;99712.81;5111395;27;20205;-66
2022/10/30 08:13:28;;;;;;;1.97;1.60;;;;;;;22.60;47.16;99701.84;5111366;28;20205;-58
2022/10/30 08:15:54;;;;;;;1.58;1.48;;;;;;;23.14;46.35;99697.53;5111481;28;20225;-58
2022/10/30 08:18:21;;;;;;;1.67;1.45;;;;;;;23.43;45.52;99702.00;5111093;28;20237;-58
2022/10/30 08:20:49;;;;;;;2.13;1.73;;;;;;;23.13;45.89;99694.13;5111295;28;20772;-65
2022/10/30 08:23:18;;;;;;;2.47;2.00;;;;;;;22.81;46.05;99692.59;5111173;28;20683;-58
2022/10/30 08:25:48;;;;;;;2.10;1.83;;;;;;;22.95;45.36;99689.25;5110964;28;20676;-66
2022/10/30 08:28:14;;;;;;;2.33;1.70;;;;;;;22.34;45.74;99694.38;5110862;28;20254;-59
2022/10/30 08:30:41;;;;;;;2.20;1.60;;;;;;;22.11;46.17;99693.50;5110980;28;20232;-58
2022/10/30 08:33:13;;;;;;;2.03;1.40;;;;;;;22.13;46.53;99694.09;5111179;28;20668;-65
2022/10/30 08:35:47;;;;;;;2.53;1.70;;;;;;;21.99;46.84;99684.41;5110904;28;20665;-65
2022/10/30 08:38:14;;;;;;;1.70;1.30;;;;;;;22.27;46.79;99683.00;5110851;28;20311;-65
2022/10/30 08:40:42;;;;;;;1.20;1.10;;;;;;;22.77;46.69;99676.44;5110664;28;20992;-65
2022/10/30 08:43:09;;;;;;;1.70;1.42;;;;;;;23.43;46.25;99675.91;5110579;28;20198;-65
2022/10/30 08:45:36;;;;;;;1.48;1.25;;;;;;;23.91;44.62;99663.28;5110565;28;20622;-59
2022/10/30 08:48:05;;;;;;;2.90;1.70;;;;;;;24.48;43.63;99670.34;5110550;28;20205;-59
2022/10/30 08:50:33;;;;;;;1.67;1.20;;;;;;;23.70;43.40;99667.44;5110812;28;20581;-66
2022/10/30 08:53:01;;;;;;;2.08;1.63;;;;;;;24.08;44.01;99661.25;5110807;28;20561;-59
2022/10/30 08:55:28;;;;;;;1.67;1.58;;;;;;;24.16;43.25;99656.72;5111043;28;20253;-66
2022/10/30 08:57:56;;;;;;;3.65;1.90;;;;;;;24.39;43.16;99660.97;5110377;27;20229;-58
2022/10/30 09:00:23;;;;;;;2.20;1.65;;;;;;;24.68;43.24;99664.50;5110737;28;20217;-58
2022/10/30 09:02:50;;;;;;;2.17;1.40;;;;;;;24.81;42.30;99664.59;5110340;28;20569;-62
2022/10/30 09:05:17;;;;;;;1.95;1.40;;;;;;;24.92;42.98;99666.69;5110091;28;20236;-59
2022/10/30 09:07:44;;;;;;;2.38;1.40;;;;;;;24.69;41.18;99658.25;5110341;28;20209;-58
2022/10/30 09:10:11;;;;;;;2.33;1.50;;;;;;;25.00;41.35;99658.72;5110280;28;20213;-59
2022/10/30 09:12:38;;;;;;;2.10;1.58;;;;;;;25.16;41.40;99664.69;5110401;28;20245;-66
2022/10/30 09:15:07;;;;;;;2.45;1.65;;;;;;;25.28;41.13;99657.94;5109282;28;20245;-59
2022/10/30 09:17:34;;;;;;;3.05;1.85;;;;;;;25.79;40.58;99654.13;5110661;28;20306;-66
2022/10/30 09:20:01;;;;;;;3.15;2.03;;;;;;;26.00;40.33;99658.47;5110321;28;20213;-66
2022/10/30 09:22:27;;;;;;;2.30;1.60;;;;;;;25.51;40.46;99655.84;5110228;28;20665;-59
2022/10/30 09:24:54;;;;;;;2.08;1.75;;;;;;;26.07;40.00;99652.25;5110033;28;20579;-59
2022/10/30 09:27:21;;;;;;;2.00;1.60;;;;;;;26.45;39.65;99650.91;5110039;28;20315;-66
2022/10/30 09:29:48;;;;;;;2.20;1.80;;;;;;;26.40;38.30;99649.69;5109956;28;20224;-58
2022/10/30 09:32:16;;;;;;;2.25;1.60;;;;;;;26.77;39.31;99644.09;5110136;28;20197;-59
2022/10/30 09:34:42;;;;;;;2.15;1.38;;;;;;;26.39;38.32;99642.84;5110000;28;20228;-66
2022/10/30 09:37:09;;;;;;;2.50;1.63;;;;;;;26.02;39.05;99635.50;5110059;28;20204;-66
2022/10/30 09:39:36;;;;;;;2.33;1.58;;;;;;;26.11;39.32;99631.69;5109921;28;20213;-66
2022/10/30 09:42:38;;;;;;;2.03;1.65;;;;;;;26.18;37.80;99635.16;5110201;28;20635;-66
2022/10/30 09:45:18;;;;;;;1.98;1.58;;;;;;;26.59;37.67;99621.09;5099280;28;20221;-66
2022/10/30 09:47:56;;;;;;;1.33;1.17;;;;;;;26.59;37.33;99627.16;5110062;28;20295;-59
2022/10/30 09:50:31;;;;;;;1.98;1.55;;;;;;;26.46;37.81;99616.59;5110164;28;20659;-59
2022/10/30 09:53:07;;;;;;;1.77;1.58;;;;;;;27.10;37.56;99612.53;5110176;28;20216;-59
2022/10/30 09:55:42;;;;;;;2.25;1.60;;;;;;;27.63;36.02;99607.13;5109798;28;20282;-59
2022/10/30 09:58:21;;;;;;;1.52;1.27;;;;;;;27.14;35.47;99603.25;5109881;28;20316;-66
2022/10/30 10:00:52;;;;;;;1.52;1.30;;;;;;;27.40;35.99;99598.94;5109758;28;20256;-65
2022/10/30 10:03:33;;;;;;;1.70;1.60;;;;;;;27.79;35.91;99599.84;5109792;28;20209;-59
2022/10/30 10:06:02;;;;;;;2.13;1.48;;;;;;;27.31;36.79;99604.47;5109812;28;20227;-66
2022/10/30 10:08:37;;;;;;;2.72;1.50;;;;;;;26.79;35.08;99598.28;5110191;28;20255;-66
2022/10/30 10:11:10;;;;;;;1.27;1.17;;;;;;;26.54;36.97;99592.84;5109932;28;20232;-59
2022/10/30 10:13:42;;;;;;;1.63;1.25;;;;;;;27.03;36.05;99590.78;5109530;28;20194;-66
2022/10/30 10:16:16;;;;;;;1.55;1.40;;;;;;;27.61;36.54;99590.00;5109796;28;20569;-59
2022/10/30 10:18:47;;;;;;;3.53;2.38;;;;;;;27.49;34.86;99584.59;5109584;28;20331;-66
2022/10/30 10:21:21;;;;;;;1.40;1.30;;;;;;;27.47;34.68;99581.38;5110013;28;20628;-66
2022/10/30 10:23:49;;;;;;;1.98;1.55;;;;;;;27.15;35.30;99583.91;5109491;28;20259;-66
2022/10/30 10:26:34;;;;;;;2.28;1.85;;;;;;;27.50;35.67;99578.31;5109961;28;20210;-66
2022/10/30 10:29:14;;;;;;;1.80;1.50;;;;;;;27.07;35.75;99581.47;5113361;28;20221;-60
2022/10/30 10:31:46;;;;;;;1.92;1.45;;;;;;;27.25;36.12;99579.00;5113262;28;20566;-62
2022/10/30 10:34:35;;;;;;;2.38;1.67;;;;;;;27.07;35.18;99576.22;5113494;27;20221;-65
2022/10/30 10:37:12;;;;;;;1.40;1.27;;;;;;;26.63;37.08;99586.38;5113528;28;20205;-59
2022/10/30 10:39:53;;;;;;;2.22;1.42;;;;;;;26.67;37.33;99583.34;5112903;27;20236;-66
2022/10/30 10:42:26;;;;;;;1.50;1.40;;;;;;;26.71;36.49;99577.50;5113165;28;20198;-65
2022/10/30 10:45:12;;;;;;;1.70;1.48;;;;;;;26.96;37.40;99574.22;5113124;28;20221;-59
2022/10/30 10:48:17;;;;;;;1.70;1.35;;;;;;;27.30;36.80;99563.44;5113072;28;20673;-59
2022/10/30 10:50:49;;;;;;;1.90;1.50;;;;;;;27.07;36.25;99565.72;5109476;28;20256;-66
2022/10/30 10:53:24;;;;;;;2.08;1.50;;;;;;;27.14;36.96;99561.25;5112771;28;20670;-59
2022/10/30 10:55:56;;;;;;;1.60;1.40;;;;;;;27.49;36.45;99550.44;5112822;28;20220;-66
2022/10/30 10:58:29;;;;;;;1.90;1.63;;;;;;;27.58;35.69;99543.94;5112929;28;20236;-66
2022/10/30 11:00:58;;;;;;;2.00;1.60;;;;;;;27.31;36.22;99536.19;5112624;28;20225;-59
2022/10/30 11:03:36;;;;;;;2.33;1.50;;;;;;;27.37;35.64;99538.97;5112740;28;20233;-59
2022/10/30 11:06:20;;;;;;;4.05;1.73;;;;;;;27.54;35.85;99529.59;5112648;28;20261;-66
2022/10/30 11:08:47;;;;;;;1.50;1.40;;;;;;;27.80;35.03;99527.84;5112727;28;20806;-59
2022/10/30 11:11:14;;;;;;;1.17;1.08;;;;;;;27.80;34.73;99526.03;5112804;28;20197;-59
2022/10/30 11:13:43;;;;;;;1.42;1.33;;;;;;;27.70;34.69;99523.84;5112454;28;20201;-59
2022/10/30 11:16:21;;;;;;;2.30;1.60;;;;;;;27.63;34.65;99523.06;5112675;28;20205;-66
2022/10/30 11:18:52;;;;;;;1.25;1.15;;;;;;;27.44;34.74;99516.13;5112232;28;20225;-66
2022/10/30 11:21:23;;;;;;;1.80;1.38;;;;;;;27.26;34.46;99517.63;5112419;28;20210;-66
2022/10/30 11:23:51;;;;;;;3.75;2.10;;;;;;;27.38;34.77;99512.50;5112249;28;20204;-66
2022/10/30 11:26:30;;;;;;;2.65;1.63;;;;;;;27.06;34.66;99507.16;5112400;28;20677;-59
2022/10/30 11:29:01;;;;;;;2.03;1.50;;;;;;;27.07;34.58;99502.72;5112439;28;20281;-59
2022/10/30 11:31:34;;;;;;;1.95;1.20;;;;;;;26.78;34.17;99504.03;5112638;28;20681;-59
2022/10/30 11:34:14;;;;;;;2.38;1.52;;;;;;;26.71;34.59;99483.06;5111941;28;20252;-66
2022/10/30 11:36:43;;;;;;;3.15;1.80;;;;;;;26.84;34.46;99490.88;5112080;28;20198;-59
2022/10/30 11:39:11;;;;;;;1.38;1.00;;;;;;;26.31;34.53;99490.97;5111438;28;20236;-59
2022/10/30 11:41:39;;;;;;;1.83;1.05;;;;;;;26.51;34.92;99479.69;5111909;28;20658;-59
2022/10/30 11:44:06;;;;;;;0.90;0.90;;;;;;;26.67;35.17;99487.09;5111910;28;20260;-59